createdAt,value
2023-01-29T00:00:11.950Z,99851.72
2023-01-29T00:02:43.368Z,99848.53
2023-01-29T00:05:27.062Z,99852.44
2023-01-29T00:07:57.099Z,99852.06
2023-01-29T00:10:25.789Z,99847.03
2023-01-29T00:12:53.964Z,99851.28
2023-01-29T00:15:22.261Z,99843.44
2023-01-29T00:17:50.689Z,99854.69
2023-01-29T00:20:20.362Z,99843.28
2023-01-29T00:22:48.851Z,99844.81
2023-01-29T00:25:17.399Z,99846.78
2023-01-29T00:27:48.033Z,99852.00
2023-01-29T00:30:19.791Z,99859.22
2023-01-29T00:32:51.815Z,99860.53
2023-01-29T00:35:21.378Z,99849.47
2023-01-29T00:37:52.363Z,99844.31
2023-01-29T00:40:20.482Z,99832.94
2023-01-29T00:43:05.797Z,99837.84
2023-01-29T00:45:33.917Z,99849.03
2023-01-29T00:48:01.871Z,99843.13
2023-01-29T00:50:31.491Z,99848.84
2023-01-29T00:52:59.643Z,99851.28
2023-01-29T00:55:27.597Z,99847.03
2023-01-29T00:57:55.694Z,99849.19
2023-01-29T01:00:26.027Z,99854.13
2023-01-29T01:03:07.912Z,99849.09
2023-01-29T01:05:39.104Z,99852.66
2023-01-29T01:08:28.712Z,99850.19
2023-01-29T01:11:00.107Z,99847.03
2023-01-29T01:13:28.084Z,99840.25
2023-01-29T01:15:56.121Z,99843.22
2023-01-29T01:18:24.361Z,99850.06
2023-01-29T01:20:58.920Z,99843.56
2023-01-29T01:23:28.036Z,99843.06
2023-01-29T01:25:55.983Z,99831.34
2023-01-29T01:28:24.052Z,99842.81
2023-01-29T01:30:52.021Z,99839.09
2023-01-29T01:33:20.447Z,99843.91
2023-01-29T01:35:48.444Z,99839.31
2023-01-29T01:38:17.737Z,99848.78
2023-01-29T01:40:47.189Z,99850.28
2023-01-29T01:43:16.168Z,99841.13
2023-01-29T01:45:46.723Z,99843.03
2023-01-29T01:48:20.568Z,99836.09
2023-01-29T01:50:54.707Z,99834.41
2023-01-29T01:53:27.678Z,99839.63
2023-01-29T01:55:59.931Z,99840.13
2023-01-29T01:58:32.937Z,99832.53
2023-01-29T02:01:01.415Z,99836.59
2023-01-29T02:03:49.976Z,99833.13
2023-01-29T02:06:35.718Z,99828.38
2023-01-29T02:09:28.450Z,99832.97
2023-01-29T02:11:56.560Z,99841.41
2023-01-29T02:14:25.339Z,99845.63
2023-01-29T02:16:53.370Z,99847.81
2023-01-29T02:19:29.450Z,99846.97
2023-01-29T02:22:17.033Z,99839.22
2023-01-29T02:25:10.417Z,99845.56
2023-01-29T02:28:07.651Z,99840.91
2023-01-29T02:30:39.329Z,99842.41
2023-01-29T02:33:21.352Z,99846.69
2023-01-29T02:36:00.406Z,99845.66
2023-01-29T02:38:35.554Z,99846.53
2023-01-29T02:41:08.092Z,99840.50
2023-01-29T02:43:47.304Z,99847.28
2023-01-29T02:46:23.889Z,99841.25
2023-01-29T02:48:58.276Z,99850.53
2023-01-29T02:51:35.387Z,99842.88
2023-01-29T02:54:08.488Z,99839.16
2023-01-29T02:56:40.757Z,99832.03
2023-01-29T02:59:15.378Z,99834.41
2023-01-29T03:01:49.287Z,99833.44
2023-01-29T03:04:23.708Z,99837.97
2023-01-29T03:06:58.386Z,99843.19
2023-01-29T03:09:31.310Z,99837.03
2023-01-29T03:12:19.832Z,99848.22
2023-01-29T03:15:10.300Z,99834.13
2023-01-29T03:17:43.264Z,99841.06
2023-01-29T03:20:17.430Z,99843.69
2023-01-29T03:22:51.502Z,99840.72
2023-01-29T03:25:39.119Z,99844.03
2023-01-29T03:28:26.444Z,99841.16
2023-01-29T03:31:15.463Z,99842.63
2023-01-29T03:33:52.165Z,99834.63
2023-01-29T03:36:23.998Z,99840.31
2023-01-29T03:38:52.125Z,99834.72
2023-01-29T03:41:29.965Z,99834.66
2023-01-29T03:44:11.166Z,99836.56
2023-01-29T03:46:47.898Z,99830.91
2023-01-29T03:49:24.511Z,99830.63
2023-01-29T03:51:59.391Z,99835.03
2023-01-29T03:54:41.861Z,99830.09
2023-01-29T03:57:17.153Z,99838.38
2023-01-29T03:59:54.678Z,99838.31
2023-01-29T04:02:50.346Z,99826.47
2023-01-29T04:05:22.158Z,99831.19
2023-01-29T04:08:09.889Z,99838.38
2023-01-29T04:10:40.448Z,99841.31
2023-01-29T04:13:12.318Z,99840.31
2023-01-29T04:15:47.450Z,99844.97
2023-01-29T04:18:17.053Z,99844.75
2023-01-29T04:21:07.204Z,99847.63
2023-01-29T04:23:35.538Z,99846.84
2023-01-29T04:26:21.713Z,99846.13
2023-01-29T04:29:03.570Z,99843.16
2023-01-29T04:31:38.615Z,99842.97
2023-01-29T04:34:20.727Z,99850.47
2023-01-29T04:37:02.547Z,99846.69
2023-01-29T04:39:37.577Z,99844.69
2023-01-29T04:42:13.470Z,99844.69
2023-01-29T04:44:49.842Z,99838.56
2023-01-29T04:47:25.837Z,99849.34
2023-01-29T04:50:09.791Z,99840.97
2023-01-29T04:52:49.072Z,99842.88
2023-01-29T04:55:26.580Z,99841.38
2023-01-29T04:58:01.905Z,99835.88
2023-01-29T05:00:34.665Z,99851.16
2023-01-29T05:03:03.846Z,99856.44
2023-01-29T05:05:33.857Z,99851.16
2023-01-29T05:08:01.665Z,99850.31
2023-01-29T05:10:30.447Z,99845.84
2023-01-29T05:13:02.389Z,99840.47
2023-01-29T05:15:38.177Z,99841.41
2023-01-29T05:18:08.787Z,99837.25
2023-01-29T05:20:40.320Z,99839.28
2023-01-29T05:23:11.787Z,99840.69
2023-01-29T05:25:40.285Z,99848.53
2023-01-29T05:28:08.399Z,99849.41
2023-01-29T05:30:38.172Z,99851.28
2023-01-29T05:33:12.501Z,99853.00
2023-01-29T05:35:42.080Z,99850.31
2023-01-29T05:38:09.986Z,99852.16
2023-01-29T05:40:38.168Z,99838.66
2023-01-29T05:43:06.604Z,99839.91
2023-01-29T05:45:34.618Z,99839.66
2023-01-29T05:48:02.460Z,99825.69
2023-01-29T05:50:30.408Z,99810.81
2023-01-29T05:53:01.425Z,99803.88
2023-01-29T05:55:30.482Z,99795.47
2023-01-29T05:57:58.332Z,99795.00
2023-01-29T06:00:26.170Z,99800.91
2023-01-29T06:02:54.271Z,99807.78
2023-01-29T06:05:22.081Z,99813.91
2023-01-29T06:07:49.980Z,99820.34
2023-01-29T06:10:19.949Z,99818.22
2023-01-29T06:12:48.534Z,99811.16
2023-01-29T06:15:16.634Z,99818.75
2023-01-29T06:17:44.434Z,99835.56
2023-01-29T06:20:13.214Z,99825.03
2023-01-29T06:22:41.012Z,99819.03
2023-01-29T06:25:09.985Z,99825.13
2023-01-29T06:27:39.119Z,99828.22
2023-01-29T06:30:08.020Z,99825.19
2023-01-29T06:32:36.100Z,99835.41
2023-01-29T06:35:04.279Z,99833.78
2023-01-29T06:37:32.151Z,99830.41
2023-01-29T06:40:00.057Z,99833.06
2023-01-29T06:42:28.208Z,99826.03
2023-01-29T06:44:57.686Z,99826.56
2023-01-29T06:47:26.114Z,99829.75
2023-01-29T06:49:53.955Z,99827.84
2023-01-29T06:52:21.791Z,99828.47
2023-01-29T06:54:52.842Z,99834.75
2023-01-29T06:57:20.742Z,99836.13
2023-01-29T06:59:48.573Z,99840.81
2023-01-29T07:02:17.952Z,99846.34
2023-01-29T07:04:45.774Z,99843.69
2023-01-29T07:07:15.978Z,99834.72
2023-01-29T07:09:44.303Z,99844.50
2023-01-29T07:12:12.417Z,99835.56
2023-01-29T07:14:40.286Z,99834.75
2023-01-29T07:17:08.151Z,99833.78
2023-01-29T07:19:37.366Z,99848.44
2023-01-29T07:22:07.837Z,99856.91
2023-01-29T07:24:35.936Z,99842.13
2023-01-29T07:27:04.286Z,99852.66
2023-01-29T07:29:32.760Z,99855.00
2023-01-29T07:32:01.306Z,99853.94
2023-01-29T07:34:29.919Z,99864.59
2023-01-29T07:36:59.333Z,99863.06
2023-01-29T07:39:27.209Z,99862.47
2023-01-29T07:42:00.903Z,99867.69
2023-01-29T07:44:38.567Z,99865.75
2023-01-29T07:47:06.844Z,99873.56
2023-01-29T07:49:34.771Z,99874.38
2023-01-29T07:52:04.285Z,99867.25
2023-01-29T07:54:32.450Z,99877.63
2023-01-29T07:57:00.416Z,99882.25
2023-01-29T07:59:28.193Z,99883.38
2023-01-29T08:01:56.077Z,99881.47
2023-01-29T08:04:23.966Z,99880.31
2023-01-29T08:06:51.839Z,99879.19
2023-01-29T08:09:21.044Z,99882.53
2023-01-29T08:11:49.058Z,99880.09
2023-01-29T08:14:16.903Z,99875.28
2023-01-29T08:16:44.776Z,99887.47
2023-01-29T08:19:12.647Z,99888.19
2023-01-29T08:21:40.494Z,99888.50
2023-01-29T08:24:08.349Z,99895.56
2023-01-29T08:26:37.662Z,99899.50
2023-01-29T08:29:05.763Z,99898.00
2023-01-29T08:31:33.673Z,99891.03
2023-01-29T08:34:01.554Z,99897.13
2023-01-29T08:36:29.513Z,99901.28
2023-01-29T08:38:57.398Z,99904.28
2023-01-29T08:41:25.235Z,99909.56
2023-01-29T08:43:54.452Z,99915.84
2023-01-29T08:46:22.356Z,99915.63
2023-01-29T08:48:50.308Z,99907.75
2023-01-29T08:51:18.583Z,99906.66
2023-01-29T08:53:46.453Z,99909.00
2023-01-29T08:56:16.340Z,99909.91
2023-01-29T08:58:44.584Z,99910.78
2023-01-29T09:01:15.417Z,99902.97
2023-01-29T09:03:44.507Z,99904.66
2023-01-29T09:06:14.389Z,99897.78
2023-01-29T09:08:42.424Z,99909.03
2023-01-29T09:11:10.644Z,99917.22
2023-01-29T09:13:38.799Z,99919.38
2023-01-29T09:16:11.424Z,99915.19
2023-01-29T09:18:40.680Z,99916.75
2023-01-29T09:21:08.798Z,99921.09
2023-01-29T09:23:36.747Z,99912.81
2023-01-29T09:26:05.118Z,99923.59
2023-01-29T09:28:32.949Z,99927.22
2023-01-29T09:31:02.364Z,99927.06
2023-01-29T09:33:30.990Z,99922.44
2023-01-29T09:36:00.376Z,99929.28
2023-01-29T09:38:28.581Z,99918.00
2023-01-29T09:41:05.196Z,99909.34
2023-01-29T09:43:43.648Z,99905.75
2023-01-29T09:46:19.437Z,99900.13
2023-01-29T09:48:49.401Z,99897.66
2023-01-29T09:51:28.568Z,99883.94
2023-01-29T09:54:04.723Z,99873.84
2023-01-29T09:56:33.052Z,99861.56
2023-01-29T09:59:01.985Z,99858.09
2023-01-29T10:01:37.985Z,99868.50
2023-01-29T10:04:28.600Z,99853.81
2023-01-29T10:07:16.716Z,99849.28
2023-01-29T10:10:07.945Z,99833.41
2023-01-29T10:12:51.328Z,99839.59
2023-01-29T10:15:33.353Z,99831.00
2023-01-29T10:18:20.772Z,99836.69
2023-01-29T10:20:59.539Z,99837.72
2023-01-29T10:23:34.649Z,99842.31
2023-01-29T10:26:03.418Z,99854.50
2023-01-29T10:28:39.335Z,99864.38
2023-01-29T10:31:11.231Z,99855.19
2023-01-29T10:33:49.196Z,99849.03
2023-01-29T10:36:35.413Z,99850.41
2023-01-29T10:39:04.861Z,99851.16
2023-01-29T10:41:53.111Z,99848.66
2023-01-29T10:44:32.636Z,99859.53
2023-01-29T10:47:30.885Z,99858.69
2023-01-29T10:50:19.572Z,99850.75
2023-01-29T10:53:13.417Z,99849.69
2023-01-29T10:55:53.768Z,99832.34
2023-01-29T10:58:32.094Z,99842.03
2023-01-29T11:01:00.234Z,99848.22
2023-01-29T11:03:30.119Z,99848.91
2023-01-29T11:06:10.151Z,99850.03
2023-01-29T11:08:42.023Z,99849.41
2023-01-29T11:11:15.481Z,99847.06
2023-01-29T11:13:49.203Z,99837.28
2023-01-29T11:16:19.436Z,99842.69
2023-01-29T11:18:53.573Z,99839.22
2023-01-29T11:21:21.815Z,99838.47
2023-01-29T11:23:49.807Z,99832.06
2023-01-29T11:26:22.351Z,99827.19
2023-01-29T11:28:52.531Z,99820.03
2023-01-29T11:31:24.034Z,99806.00
2023-01-29T11:33:54.550Z,99796.94
2023-01-29T11:36:32.832Z,99803.88
2023-01-29T11:39:21.685Z,99798.97
2023-01-29T11:41:54.727Z,99794.84
2023-01-29T11:44:28.895Z,99789.66
2023-01-29T11:46:58.543Z,99800.09
2023-01-29T11:49:33.536Z,99795.16
2023-01-29T11:52:04.804Z,99793.97
2023-01-29T11:54:37.871Z,99799.19
2023-01-29T11:57:20.561Z,99795.44
2023-01-29T11:59:52.100Z,99783.44
2023-01-29T12:02:28.089Z,99778.44
2023-01-29T12:04:58.998Z,99773.19
2023-01-29T12:07:27.288Z,99755.03
2023-01-29T12:09:57.293Z,99751.03
2023-01-29T12:12:33.175Z,99746.53
2023-01-29T12:15:24.924Z,99743.16
2023-01-29T12:18:04.458Z,99732.13
2023-01-29T12:20:40.429Z,99728.47
2023-01-29T12:23:26.493Z,99720.91
2023-01-29T12:26:02.852Z,99717.41
2023-01-29T12:28:43.746Z,99701.50
2023-01-29T12:31:26.280Z,99698.00
2023-01-29T12:34:00.113Z,99687.94
2023-01-29T12:36:32.578Z,99685.16
2023-01-29T12:39:00.663Z,99687.69
2023-01-29T12:41:38.133Z,99683.03
2023-01-29T12:44:13.109Z,99668.00
2023-01-29T12:46:49.007Z,99671.47
2023-01-29T12:49:21.234Z,99666.34
2023-01-29T12:51:56.770Z,99661.50
2023-01-29T12:54:32.274Z,99666.84
2023-01-29T12:57:09.934Z,99660.84
2023-01-29T12:59:44.211Z,99657.78
2023-01-29T13:02:24.741Z,99648.78
2023-01-29T13:05:00.297Z,99649.78
2023-01-29T13:07:33.195Z,99637.72
2023-01-29T13:10:09.179Z,99642.00
2023-01-29T13:12:39.980Z,99632.25
2023-01-29T13:15:22.581Z,99628.56
2023-01-29T13:17:55.697Z,99637.00
2023-01-29T13:20:29.995Z,99634.38
2023-01-29T13:23:03.320Z,99631.41
2023-01-29T13:25:32.420Z,99627.00
2023-01-29T13:28:00.435Z,99626.78
2023-01-29T13:30:32.075Z,99628.66
2023-01-29T13:33:10.501Z,99629.50
2023-01-29T13:35:44.112Z,99634.53
2023-01-29T13:38:26.491Z,99636.44
2023-01-29T13:40:57.724Z,99629.50
2023-01-29T13:43:26.096Z,99638.31
2023-01-29T13:45:56.034Z,99633.88
2023-01-29T13:48:28.325Z,99637.72
2023-01-29T13:50:58.350Z,99640.81
2023-01-29T13:53:28.430Z,99643.50
2023-01-29T13:55:56.460Z,99650.81
2023-01-29T13:58:54.948Z,99641.06
2023-01-29T14:02:02.629Z,99640.28
2023-01-29T14:04:34.033Z,99637.44
2023-01-29T14:07:04.012Z,99632.63
2023-01-29T14:10:03.624Z,99630.69
2023-01-29T14:12:45.484Z,99626.97
2023-01-29T14:15:28.877Z,99622.59
2023-01-29T14:18:04.523Z,99626.25
2023-01-29T14:20:45.523Z,99629.22
2023-01-29T14:23:25.065Z,99630.81
2023-01-29T14:25:53.233Z,99629.31
2023-01-29T14:28:25.864Z,99626.25
2023-01-29T14:30:55.016Z,99618.56
2023-01-29T14:33:29.788Z,99615.28
2023-01-29T14:36:04.446Z,99615.25
2023-01-29T14:38:34.443Z,99611.13
2023-01-29T14:41:10.661Z,99614.78
2023-01-29T14:43:38.550Z,99611.91
2023-01-29T14:46:42.871Z,99610.72
2023-01-29T14:49:10.816Z,99615.16
2023-01-29T14:51:45.324Z,99611.47
2023-01-29T14:54:26.342Z,99605.47
2023-01-29T14:57:00.806Z,99600.75
2023-01-29T14:59:35.104Z,99605.28
2023-01-29T15:02:13.304Z,99595.72
2023-01-29T15:04:47.540Z,99609.66
2023-01-29T15:07:29.479Z,99616.81
2023-01-29T15:10:21.527Z,99616.63
2023-01-29T15:12:53.892Z,99628.50
2023-01-29T15:15:30.226Z,99626.13
2023-01-29T15:18:02.933Z,99621.66
2023-01-29T15:20:33.513Z,99619.63
2023-01-29T15:23:04.152Z,99613.06
2023-01-29T15:25:37.011Z,99621.75
2023-01-29T15:28:08.576Z,99610.50
2023-01-29T15:30:37.809Z,99608.44
2023-01-29T15:33:10.694Z,99605.25
2023-01-29T15:35:40.678Z,99608.78
2023-01-29T15:38:17.438Z,99615.81
2023-01-29T15:40:53.422Z,99617.97
2023-01-29T15:43:24.931Z,99606.56
2023-01-29T15:45:54.778Z,99604.25
2023-01-29T15:48:31.984Z,99613.28
2023-01-29T15:51:01.234Z,99619.56
2023-01-29T15:53:36.037Z,99619.28
2023-01-29T15:56:10.131Z,99609.19
2023-01-29T15:58:38.600Z,99608.66
2023-01-29T16:01:07.452Z,99616.81
2023-01-29T16:03:37.667Z,99609.69
2023-01-29T16:06:08.752Z,99614.59
2023-01-29T16:08:41.140Z,99612.16
2023-01-29T16:11:16.407Z,99616.13
2023-01-29T16:13:49.070Z,99601.69
2023-01-29T16:16:26.209Z,99600.91
2023-01-29T16:19:00.348Z,99603.72
2023-01-29T16:21:33.603Z,99597.59
2023-01-29T16:24:09.579Z,99601.97
2023-01-29T16:26:43.243Z,99603.19
2023-01-29T16:29:14.017Z,99601.91
2023-01-29T16:31:44.175Z,99611.81
2023-01-29T16:34:20.677Z,99618.75
2023-01-29T16:36:52.848Z,99623.13
2023-01-29T16:39:25.999Z,99618.50
2023-01-29T16:42:22.284Z,99630.75
2023-01-29T16:44:56.142Z,99625.28
2023-01-29T16:47:34.437Z,99621.50
2023-01-29T16:50:20.820Z,99624.19
2023-01-29T16:52:57.866Z,99622.75
2023-01-29T16:55:27.567Z,99630.00
2023-01-29T16:57:57.404Z,99638.97
2023-01-29T17:00:27.464Z,99636.25
2023-01-29T17:03:00.742Z,99647.38
2023-01-29T17:05:31.146Z,99640.81
2023-01-29T17:08:00.451Z,99646.28
2023-01-29T17:10:31.662Z,99649.84
2023-01-29T17:13:06.315Z,99642.97
2023-01-29T17:15:37.643Z,99643.47
2023-01-29T17:18:17.197Z,99642.50
2023-01-29T17:20:45.243Z,99638.03
2023-01-29T17:23:15.673Z,99635.31
2023-01-29T17:25:46.033Z,99638.63
2023-01-29T17:28:14.839Z,99635.88
2023-01-29T17:30:44.897Z,99633.63
2023-01-29T17:33:22.649Z,99629.78
2023-01-29T17:35:51.421Z,99626.69
2023-01-29T17:38:26.499Z,99622.72
2023-01-29T17:40:59.344Z,99624.44
2023-01-29T17:43:27.422Z,99627.84
2023-01-29T17:45:55.608Z,99620.09
2023-01-29T17:48:25.469Z,99622.50
2023-01-29T17:50:56.464Z,99619.97
2023-01-29T17:53:43.345Z,99627.84
2023-01-29T17:56:18.269Z,99619.97
2023-01-29T17:58:46.961Z,99623.56
2023-01-29T18:01:15.020Z,99617.50
2023-01-29T18:03:43.924Z,99621.91
2023-01-29T18:06:26.799Z,99621.16
2023-01-29T18:09:03.922Z,99619.75
2023-01-29T18:11:35.815Z,99616.41
2023-01-29T18:14:14.209Z,99608.56
2023-01-29T18:16:45.282Z,99612.97
2023-01-29T18:19:21.691Z,99614.59
2023-01-29T18:21:50.231Z,99612.13
2023-01-29T18:24:21.157Z,99615.78
2023-01-29T18:26:51.196Z,99613.94
2023-01-29T18:29:19.679Z,99616.47
2023-01-29T18:31:50.044Z,99619.81
2023-01-29T18:34:18.387Z,99606.91
2023-01-29T18:36:47.830Z,99607.56
2023-01-29T18:39:16.505Z,99607.56
2023-01-29T18:41:44.491Z,99601.50
2023-01-29T18:44:14.042Z,99612.00
2023-01-29T18:46:42.829Z,99597.34
2023-01-29T18:49:10.772Z,99599.16
2023-01-29T18:51:38.797Z,99600.84
2023-01-29T18:54:07.317Z,99600.91
2023-01-29T18:56:35.351Z,99607.91
2023-01-29T18:59:04.924Z,99611.38
2023-01-29T19:01:35.906Z,99619.25
2023-01-29T19:04:03.834Z,99617.69
2023-01-29T19:06:36.133Z,99613.50
2023-01-29T19:09:06.548Z,99625.75
2023-01-29T19:11:34.557Z,99631.78
2023-01-29T19:14:02.684Z,99630.84
2023-01-29T19:16:30.886Z,99630.84
2023-01-29T19:19:00.174Z,99635.25
2023-01-29T19:21:28.505Z,99630.16
2023-01-29T19:23:56.832Z,99644.25
2023-01-29T19:26:25.131Z,99643.41
2023-01-29T19:28:53.167Z,99634.66
2023-01-29T19:31:21.685Z,99642.41
2023-01-29T19:33:49.570Z,99641.44
2023-01-29T19:36:19.155Z,99646.53
2023-01-29T19:38:49.358Z,99641.31
2023-01-29T19:41:17.413Z,99632.75
2023-01-29T19:43:46.422Z,99638.03
2023-01-29T19:46:14.518Z,99641.50
2023-01-29T19:48:43.136Z,99645.19
2023-01-29T19:51:13.107Z,99641.78
2023-01-29T19:53:45.046Z,99648.81
2023-01-29T19:56:15.052Z,99648.88
2023-01-29T19:58:44.827Z,99636.81
2023-01-29T20:01:16.079Z,99643.78
2023-01-29T20:03:46.460Z,99647.31
2023-01-29T20:06:16.965Z,99638.63
2023-01-29T20:08:47.056Z,99643.03
2023-01-29T20:11:15.776Z,99642.72
2023-01-29T20:13:43.758Z,99635.66
2023-01-29T20:16:11.911Z,99645.09
2023-01-29T20:18:40.357Z,99636.25
2023-01-29T20:21:12.242Z,99640.47
2023-01-29T20:23:40.925Z,99640.59
2023-01-29T20:26:13.696Z,99634.69
2023-01-29T20:28:42.454Z,99633.72
2023-01-29T20:31:11.207Z,99624.22
2023-01-29T20:33:39.816Z,99613.00
2023-01-29T20:36:10.192Z,99615.09
2023-01-29T20:38:38.855Z,99614.63
2023-01-29T20:41:08.802Z,99606.78
2023-01-29T20:43:38.167Z,99604.69
2023-01-29T20:46:06.712Z,99599.22
2023-01-29T20:48:35.221Z,99589.75
2023-01-29T20:51:09.278Z,99582.81
2023-01-29T20:53:38.497Z,99580.38
2023-01-29T20:56:07.455Z,99579.56
2023-01-29T20:58:38.210Z,99581.28
2023-01-29T21:01:10.510Z,99569.09
2023-01-29T21:03:39.907Z,99566.50
2023-01-29T21:06:09.509Z,99558.00
2023-01-29T21:08:38.464Z,99571.81
2023-01-29T21:11:07.840Z,99566.59
2023-01-29T21:13:38.628Z,99569.56
2023-01-29T21:16:07.173Z,99570.44
2023-01-29T21:18:40.098Z,99576.41
2023-01-29T21:21:08.074Z,99578.63
2023-01-29T21:23:36.049Z,99574.88
2023-01-29T21:26:04.925Z,99578.53
2023-01-29T21:28:33.338Z,99584.41
2023-01-29T21:31:05.815Z,99580.13
2023-01-29T21:33:35.034Z,99582.19
2023-01-29T21:36:05.585Z,99587.78
2023-01-29T21:38:33.921Z,99590.03
2023-01-29T21:41:02.285Z,99584.06
2023-01-29T21:43:29.669Z,99589.22
2023-01-29T21:46:03.900Z,99586.47
2023-01-29T21:48:32.316Z,99591.53
2023-01-29T21:51:04.249Z,99586.44
2023-01-29T21:53:32.334Z,99589.13
2023-01-29T21:56:01.657Z,99579.59
2023-01-29T21:58:30.456Z,99570.97
2023-01-29T22:01:11.408Z,99569.25
2023-01-29T22:03:47.484Z,99577.81
2023-01-29T22:06:17.083Z,99583.00
2023-01-29T22:08:45.091Z,99573.53
2023-01-29T22:11:13.152Z,99583.06
2023-01-29T22:13:43.291Z,99573.56
2023-01-29T22:16:11.284Z,99579.88
2023-01-29T22:18:39.233Z,99580.09
2023-01-29T22:21:07.100Z,99574.94
2023-01-29T22:23:36.372Z,99582.72
2023-01-29T22:26:05.227Z,99577.34
2023-01-29T22:28:33.173Z,99574.69
2023-01-29T22:31:04.575Z,99572.50
2023-01-29T22:33:33.191Z,99576.09
2023-01-29T22:36:01.230Z,99568.09
2023-01-29T22:38:29.552Z,99565.44
2023-01-29T22:41:00.842Z,99567.09
2023-01-29T22:43:29.230Z,99548.88
2023-01-29T22:45:58.231Z,99543.59
2023-01-29T22:48:26.873Z,99525.53
2023-01-29T22:51:09.873Z,99523.16
2023-01-29T22:53:39.232Z,99522.31
2023-01-29T22:56:09.425Z,99509.16
2023-01-29T22:58:37.585Z,99499.75
2023-01-29T23:01:06.035Z,99495.44
2023-01-29T23:03:34.176Z,99494.75
2023-01-29T23:06:02.235Z,99485.94
2023-01-29T23:08:30.106Z,99471.34
2023-01-29T23:11:14.499Z,99470.47
2023-01-29T23:13:46.032Z,99476.72
2023-01-29T23:16:14.754Z,99487.25
2023-01-29T23:18:45.834Z,99487.09
2023-01-29T23:21:13.864Z,99479.94
2023-01-29T23:23:44.055Z,99483.41
2023-01-29T23:26:30.710Z,99467.78
2023-01-29T23:29:01.202Z,99454.78
2023-01-29T23:31:29.246Z,99465.53
2023-01-29T23:33:57.250Z,99472.69
2023-01-29T23:36:25.177Z,99471.88
2023-01-29T23:38:53.175Z,99476.78
2023-01-29T23:41:21.337Z,99477.75
2023-01-29T23:43:49.948Z,99472.38
2023-01-29T23:46:19.340Z,99463.59
2023-01-29T23:48:47.247Z,99455.75
2023-01-29T23:51:15.235Z,99451.13
2023-01-29T23:53:43.303Z,99446.00
2023-01-29T23:56:12.646Z,99445.19
2023-01-29T23:58:40.689Z,99431.16
